Muren, Mongolia
Current Conditions -  °F | °C
As of 11:30 AM on Thursday 23 Oct 2014 (Local Time) from UIII Reporting Station
Smoke Smoke  
Wind Chill: 36°   Ceiling: 1400
Heat Index: 36°   Visibility: 2.1mi
Dew Point: 32°   Wind: 2mph
Humidity: 87%   Direction: NA
Pressure: 29.91"   Gusts: NA
Location:  49.66°N, 100.1°E
Report Text: UIII 230330Z VRB01MPS 3500 BR FU OVC014 02/00 Q1013 NOSIG RMKQFE715/0953 30190055
Loading
Personal Weather Stations






























Interactive Weather Map
Tropical Storm Tracking
New forecast layout! Learn more

10-Day Weather Forecast

Advertisements
Track Severe Weather on mobile